INV weather

Inverness Airport
Inverness, Scotland, United Kingdom

Public forecast

Using degrees Celsius for public forecast. Weather courtesy of forecast.io.

Current aviation weather report (METAR) for Inverness Airport

Retrieved 2019/10/22 09:20 UTC (24 minutes ago):

EGPE 220920Z 22015KT 9999 -RA FEW020 SCT047 11/09 Q1011

Closest aviation forecast (TAF) to Inverness Airport

Forecast is more than 12 hours old.

Closest forecast is RAF Kinloss, 16.9 nm (31.4 km) ENE. Retrieved 2011/10/06 06:15 UTC (8 years ago):

TAF TAF EGQK 060601Z 0606/0618 27015G25KT 9999 SCT030 TEMPO 0606/0618 7000 SHRA SCT022 PROB30 TEMPO 0609/0616 27025G32KT 4000 +SHRA SCT014CB BECMG 0614/0617 30020G30KT